sensor_id;sensor_type;location;lat;lon;timestamp;temperature;humidity
22827;DHT22;11580;52.562;13.418;2023-07-24T00:01:15;23.30;27.90
22827;DHT22;11580;52.562;13.418;2023-07-24T00:03:44;23.40;28.30
22827;DHT22;11580;52.562;13.418;2023-07-24T00:06:11;23.40;27.90
22827;DHT22;11580;52.562;13.418;2023-07-24T00:08:38;23.50;27.70
22827;DHT22;11580;52.562;13.418;2023-07-24T00:11:07;23.50;28.30
22827;DHT22;11580;52.562;13.418;2023-07-24T00:13:34;23.60;27.80
22827;DHT22;11580;52.562;13.418;2023-07-24T00:16:06;23.60;27.80
22827;DHT22;11580;52.562;13.418;2023-07-24T00:18:34;23.70;27.80
22827;DHT22;11580;52.562;13.418;2023-07-24T00:21:02;23.70;27.80
22827;DHT22;11580;52.562;13.418;2023-07-24T00:23:30;23.70;27.80
22827;DHT22;11580;52.562;13.418;2023-07-24T00:25:57;23.70;27.80
22827;DHT22;11580;52.562;13.418;2023-07-24T00:28:24;23.70;27.80
22827;DHT22;11580;52.562;13.418;2023-07-24T00:30:52;23.70;27.80
22827;DHT22;11580;52.562;13.418;2023-07-24T00:33:19;23.70;27.80
22827;DHT22;11580;52.562;13.418;2023-07-24T00:35:47;23.70;27.80
22827;DHT22;11580;52.562;13.418;2023-07-24T00:38:16;23.70;27.80
22827;DHT22;11580;52.562;13.418;2023-07-24T00:40:43;23.70;27.80
22827;DHT22;11580;52.562;13.418;2023-07-24T00:43:11;23.70;27.60
22827;DHT22;11580;52.562;13.418;2023-07-24T00:45:38;23.70;27.50
22827;DHT22;11580;52.562;13.418;2023-07-24T00:48:05;23.70;27.50
22827;DHT22;11580;52.562;13.418;2023-07-24T00:50:33;23.70;27.30
22827;DHT22;11580;52.562;13.418;2023-07-24T00:53:00;23.70;27.30
22827;DHT22;11580;52.562;13.418;2023-07-24T00:55:29;23.70;27.20
22827;DHT22;11580;52.562;13.418;2023-07-24T00:57:58;23.70;27.20
22827;DHT22;11580;52.562;13.418;2023-07-24T01:00:25;23.70;27.20
22827;DHT22;11580;52.562;13.418;2023-07-24T01:02:54;23.70;27.20
22827;DHT22;11580;52.562;13.418;2023-07-24T01:05:25;23.70;27.10
22827;DHT22;11580;52.562;13.418;2023-07-24T01:07:52;23.60;27.00
22827;DHT22;11580;52.562;13.418;2023-07-24T01:10:19;23.60;27.00
22827;DHT22;11580;52.562;13.418;2023-07-24T01:12:53;23.60;27.50
22827;DHT22;11580;52.562;13.418;2023-07-24T01:15:30;23.60;27.00
22827;DHT22;11580;52.562;13.418;2023-07-24T01:18:01;23.60;27.00
22827;DHT22;11580;52.562;13.418;2023-07-24T01:20:35;23.50;26.90
22827;DHT22;11580;52.562;13.418;2023-07-24T01:23:23;23.50;27.00
22827;DHT22;11580;52.562;13.418;2023-07-24T01:26:07;23.40;27.10
22827;DHT22;11580;52.562;13.418;2023-07-24T01:28:35;23.40;27.10
22827;DHT22;11580;52.562;13.418;2023-07-24T01:31:02;23.40;27.10
22827;DHT22;11580;52.562;13.418;2023-07-24T01:33:29;23.40;27.10
22827;DHT22;11580;52.562;13.418;2023-07-24T01:35:59;23.30;27.70
22827;DHT22;11580;52.562;13.418;2023-07-24T01:38:28;23.30;27.20
22827;DHT22;11580;52.562;13.418;2023-07-24T01:40:58;23.30;27.20
22827;DHT22;11580;52.562;13.418;2023-07-24T01:43:28;23.30;27.20
22827;DHT22;11580;52.562;13.418;2023-07-24T01:45:57;23.40;27.90
22827;DHT22;11580;52.562;13.418;2023-07-24T01:48:25;23.40;27.30
22827;DHT22;11580;52.562;13.418;2023-07-24T01:50:54;23.40;27.30
22827;DHT22;11580;52.562;13.418;2023-07-24T01:53:21;23.40;27.40
22827;DHT22;11580;52.562;13.418;2023-07-24T01:55:48;23.40;27.40
22827;DHT22;11580;52.562;13.418;2023-07-24T01:58:15;23.50;27.60
22827;DHT22;11580;52.562;13.418;2023-07-24T02:00:44;23.50;27.70
22827;DHT22;11580;52.562;13.418;2023-07-24T02:03:11;23.50;27.70
22827;DHT22;11580;52.562;13.418;2023-07-24T02:05:38;23.50;27.70
22827;DHT22;11580;52.562;13.418;2023-07-24T02:08:05;23.60;27.80
22827;DHT22;11580;52.562;13.418;2023-07-24T02:10:32;23.60;28.30
22827;DHT22;11580;52.562;13.418;2023-07-24T02:13:03;23.60;27.80
22827;DHT22;11580;52.562;13.418;2023-07-24T02:15:33;23.60;27.80
22827;DHT22;11580;52.562;13.418;2023-07-24T02:18:01;23.70;27.80
22827;DHT22;11580;52.562;13.418;2023-07-24T02:20:29;23.70;27.80
22827;DHT22;11580;52.562;13.418;2023-07-24T02:22:56;23.70;28.10
22827;DHT22;11580;52.562;13.418;2023-07-24T02:25:23;23.80;27.80
22827;DHT22;11580;52.562;13.418;2023-07-24T02:27:51;23.80;27.60
22827;DHT22;11580;52.562;13.418;2023-07-24T02:30:18;23.80;27.60
22827;DHT22;11580;52.562;13.418;2023-07-24T02:32:45;23.80;27.60
22827;DHT22;11580;52.562;13.418;2023-07-24T02:35:13;23.80;27.50
22827;DHT22;11580;52.562;13.418;2023-07-24T02:37:41;23.80;27.50
22827;DHT22;11580;52.562;13.418;2023-07-24T02:40:11;23.90;28.00
22827;DHT22;11580;52.562;13.418;2023-07-24T02:42:39;23.90;27.40
22827;DHT22;11580;52.562;13.418;2023-07-24T02:45:07;23.90;27.40
22827;DHT22;11580;52.562;13.418;2023-07-24T02:47:36;23.90;27.40
22827;DHT22;11580;52.562;13.418;2023-07-24T02:50:05;23.90;27.40
22827;DHT22;11580;52.562;13.418;2023-07-24T02:52:34;23.90;27.90
22827;DHT22;11580;52.562;13.418;2023-07-24T02:55:01;23.90;27.50
22827;DHT22;11580;52.562;13.418;2023-07-24T02:57:29;23.90;27.50
22827;DHT22;11580;52.562;13.418;2023-07-24T02:59:56;23.90;27.50
22827;DHT22;11580;52.562;13.418;2023-07-24T03:02:23;23.90;28.10
22827;DHT22;11580;52.562;13.418;2023-07-24T03:04:51;23.90;27.60
22827;DHT22;11580;52.562;13.418;2023-07-24T03:07:18;23.90;27.70
22827;DHT22;11580;52.562;13.418;2023-07-24T03:09:48;23.90;27.80
22827;DHT22;11580;52.562;13.418;2023-07-24T03:12:17;23.90;28.00
22827;DHT22;11580;52.562;13.418;2023-07-24T03:14:45;23.90;27.90
22827;DHT22;11580;52.562;13.418;2023-07-24T03:17:12;23.90;28.00
22827;DHT22;11580;52.562;13.418;2023-07-24T03:19:41;24.00;28.00
22827;DHT22;11580;52.562;13.418;2023-07-24T03:22:08;24.00;28.00
22827;DHT22;11580;52.562;13.418;2023-07-24T03:24:35;24.00;28.60
22827;DHT22;11580;52.562;13.418;2023-07-24T03:27:04;24.00;28.00
22827;DHT22;11580;52.562;13.418;2023-07-24T03:29:31;24.00;28.00
22827;DHT22;11580;52.562;13.418;2023-07-24T03:31:59;24.00;28.00
22827;DHT22;11580;52.562;13.418;2023-07-24T03:34:26;24.00;28.00
22827;DHT22;11580;52.562;13.418;2023-07-24T03:36:53;24.00;28.00
22827;DHT22;11580;52.562;13.418;2023-07-24T03:39:20;24.00;28.00
22827;DHT22;11580;52.562;13.418;2023-07-24T03:41:47;24.10;28.10
22827;DHT22;11580;52.562;13.418;2023-07-24T03:44:16;24.10;28.10
22827;DHT22;11580;52.562;13.418;2023-07-24T03:46:43;24.10;28.10
22827;DHT22;11580;52.562;13.418;2023-07-24T03:49:10;24.10;28.70
22827;DHT22;11580;52.562;13.418;2023-07-24T03:51:38;24.20;28.70
22827;DHT22;11580;52.562;13.418;2023-07-24T03:54:05;24.20;29.00
22827;DHT22;11580;52.562;13.418;2023-07-24T03:56:32;24.20;29.30
22827;DHT22;11580;52.562;13.418;2023-07-24T03:58:59;24.20;29.30
22827;DHT22;11580;52.562;13.418;2023-07-24T04:01:28;24.10;29.30
22827;DHT22;11580;52.562;13.418;2023-07-24T04:03:55;24.10;29.70
22827;DHT22;11580;52.562;13.418;2023-07-24T04:06:23;24.10;29.70
22827;DHT22;11580;52.562;13.418;2023-07-24T04:08:50;24.10;30.00
22827;DHT22;11580;52.562;13.418;2023-07-24T04:11:17;24.00;30.00
22827;DHT22;11580;52.562;13.418;2023-07-24T04:13:44;24.00;30.10
22827;DHT22;11580;52.562;13.418;2023-07-24T04:16:12;24.00;30.30
22827;DHT22;11580;52.562;13.418;2023-07-24T04:18:40;23.90;30.50
22827;DHT22;11580;52.562;13.418;2023-07-24T04:21:07;23.90;30.80
22827;DHT22;11580;52.562;13.418;2023-07-24T04:23:34;23.90;30.80
22827;DHT22;11580;52.562;13.418;2023-07-24T04:26:02;23.90;31.00
22827;DHT22;11580;52.562;13.418;2023-07-24T04:28:29;23.90;31.00
22827;DHT22;11580;52.562;13.418;2023-07-24T04:30:59;23.90;31.30
22827;DHT22;11580;52.562;13.418;2023-07-24T04:33:27;23.80;31.90
22827;DHT22;11580;52.562;13.418;2023-07-24T04:35:56;23.80;31.50
22827;DHT22;11580;52.562;13.418;2023-07-24T04:38:23;23.90;31.90
22827;DHT22;11580;52.562;13.418;2023-07-24T04:40:50;23.90;31.80
22827;DHT22;11580;52.562;13.418;2023-07-24T04:43:17;23.90;31.90
22827;DHT22;11580;52.562;13.418;2023-07-24T04:45:45;23.90;31.90
22827;DHT22;11580;52.562;13.418;2023-07-24T04:48:12;24.00;31.90
22827;DHT22;11580;52.562;13.418;2023-07-24T04:50:39;24.00;31.90
22827;DHT22;11580;52.562;13.418;2023-07-24T04:53:07;24.10;32.00
22827;DHT22;11580;52.562;13.418;2023-07-24T04:55:35;24.20;32.00
22827;DHT22;11580;52.562;13.418;2023-07-24T04:58:02;24.20;31.80
22827;DHT22;11580;52.562;13.418;2023-07-24T05:00:29;24.30;31.90
22827;DHT22;11580;52.562;13.418;2023-07-24T05:02:56;24.30;31.90
22827;DHT22;11580;52.562;13.418;2023-07-24T05:05:23;24.40;32.00
22827;DHT22;11580;52.562;13.418;2023-07-24T05:07:51;24.50;32.60
22827;DHT22;11580;52.562;13.418;2023-07-24T05:10:19;24.60;31.80
22827;DHT22;11580;52.562;13.418;2023-07-24T05:12:46;24.70;31.80
22827;DHT22;11580;52.562;13.418;2023-07-24T05:15:14;24.80;32.30
22827;DHT22;11580;52.562;13.418;2023-07-24T05:17:42;24.80;31.40
22827;DHT22;11580;52.562;13.418;2023-07-24T05:20:10;24.90;31.50
22827;DHT22;11580;52.562;13.418;2023-07-24T05:22:38;25.00;31.40
22827;DHT22;11580;52.562;13.418;2023-07-24T05:25:06;25.20;32.00
22827;DHT22;11580;52.562;13.418;2023-07-24T05:27:35;25.30;31.40
22827;DHT22;11580;52.562;13.418;2023-07-24T05:30:04;25.40;31.50
22827;DHT22;11580;52.562;13.418;2023-07-24T05:32:32;25.60;31.50
22827;DHT22;11580;52.562;13.418;2023-07-24T05:34:59;25.90;31.40
22827;DHT22;11580;52.562;13.418;2023-07-24T05:37:26;26.10;31.10
22827;DHT22;11580;52.562;13.418;2023-07-24T05:39:53;26.40;30.60
22827;DHT22;11580;52.562;13.418;2023-07-24T05:42:20;26.70;30.80
22827;DHT22;11580;52.562;13.418;2023-07-24T05:44:49;26.90;29.60
22827;DHT22;11580;52.562;13.418;2023-07-24T05:47:16;27.10;29.70
22827;DHT22;11580;52.562;13.418;2023-07-24T05:49:43;27.20;30.00
22827;DHT22;11580;52.562;13.418;2023-07-24T05:52:10;27.30;29.20
22827;DHT22;11580;52.562;13.418;2023-07-24T05:54:38;27.40;29.00
22827;DHT22;11580;52.562;13.418;2023-07-24T05:57:05;27.60;28.80
22827;DHT22;11580;52.562;13.418;2023-07-24T05:59:33;27.60;28.40
22827;DHT22;11580;52.562;13.418;2023-07-24T06:02:01;27.60;28.30
22827;DHT22;11580;52.562;13.418;2023-07-24T06:04:28;27.70;28.00
22827;DHT22;11580;52.562;13.418;2023-07-24T06:06:55;27.70;28.00
22827;DHT22;11580;52.562;13.418;2023-07-24T06:09:23;27.70;27.80
22827;DHT22;11580;52.562;13.418;2023-07-24T06:11:50;27.70;27.80
22827;DHT22;11580;52.562;13.418;2023-07-24T06:14:17;27.60;27.70
22827;DHT22;11580;52.562;13.418;2023-07-24T06:16:44;27.60;27.90
22827;DHT22;11580;52.562;13.418;2023-07-24T06:19:13;27.60;27.80
22827;DHT22;11580;52.562;13.418;2023-07-24T06:21:40;27.50;27.80
22827;DHT22;11580;52.562;13.418;2023-07-24T06:24:07;27.40;27.60
22827;DHT22;11580;52.562;13.418;2023-07-24T06:26:37;27.40;28.40
22827;DHT22;11580;52.562;13.418;2023-07-24T06:29:05;27.40;27.80
22827;DHT22;11580;52.562;13.418;2023-07-24T06:31:32;27.30;27.60
22827;DHT22;11580;52.562;13.418;2023-07-24T06:33:59;27.30;27.50
22827;DHT22;11580;52.562;13.418;2023-07-24T06:36:29;27.20;27.60
22827;DHT22;11580;52.562;13.418;2023-07-24T06:38:56;27.20;28.00
22827;DHT22;11580;52.562;13.418;2023-07-24T06:41:23;27.10;27.60
22827;DHT22;11580;52.562;13.418;2023-07-24T06:43:51;27.10;27.50
22827;DHT22;11580;52.562;13.418;2023-07-24T06:46:18;27.10;27.60
22827;DHT22;11580;52.562;13.418;2023-07-24T06:48:45;27.00;27.60
22827;DHT22;11580;52.562;13.418;2023-07-24T06:51:12;27.00;28.10
22827;DHT22;11580;52.562;13.418;2023-07-24T06:53:41;27.00;27.50
22827;DHT22;11580;52.562;13.418;2023-07-24T06:56:08;27.00;28.10
22827;DHT22;11580;52.562;13.418;2023-07-24T06:58:35;27.00;27.30
22827;DHT22;11580;52.562;13.418;2023-07-24T07:01:05;27.00;27.20
22827;DHT22;11580;52.562;13.418;2023-07-24T07:03:32;27.00;27.30
22827;DHT22;11580;52.562;13.418;2023-07-24T07:06:01;27.00;27.20
22827;DHT22;11580;52.562;13.418;2023-07-24T07:08:29;27.10;27.10
22827;DHT22;11580;52.562;13.418;2023-07-24T07:10:59;27.10;27.00
22827;DHT22;11580;52.562;13.418;2023-07-24T07:13:28;27.10;27.00
22827;DHT22;11580;52.562;13.418;2023-07-24T07:15:55;27.10;27.10
22827;DHT22;11580;52.562;13.418;2023-07-24T07:18:22;27.10;27.20
22827;DHT22;11580;52.562;13.418;2023-07-24T07:20:51;27.10;27.10
22827;DHT22;11580;52.562;13.418;2023-07-24T07:23:19;27.20;27.10
22827;DHT22;11580;52.562;13.418;2023-07-24T07:25:47;27.20;27.70
22827;DHT22;11580;52.562;13.418;2023-07-24T07:28:16;27.20;27.10
22827;DHT22;11580;52.562;13.418;2023-07-24T07:30:45;27.30;27.10
22827;DHT22;11580;52.562;13.418;2023-07-24T07:33:12;27.30;26.90
22827;DHT22;11580;52.562;13.418;2023-07-24T07:35:39;27.40;27.00
22827;DHT22;11580;52.562;13.418;2023-07-24T07:38:07;27.40;27.00
22827;DHT22;11580;52.562;13.418;2023-07-24T07:40:37;27.50;26.90
22827;DHT22;11580;52.562;13.418;2023-07-24T07:43:05;27.60;26.80
22827;DHT22;11580;52.562;13.418;2023-07-24T07:45:33;27.70;26.60
22827;DHT22;11580;52.562;13.418;2023-07-24T07:48:00;27.90;26.40
22827;DHT22;11580;52.562;13.418;2023-07-24T07:50:28;28.00;26.40
22827;DHT22;11580;52.562;13.418;2023-07-24T07:52:55;28.10;26.70
22827;DHT22;11580;52.562;13.418;2023-07-24T07:55:22;28.20;25.90
22827;DHT22;11580;52.562;13.418;2023-07-24T07:57:49;28.40;25.80
22827;DHT22;11580;52.562;13.418;2023-07-24T08:00:17;28.40;25.70
22827;DHT22;11580;52.562;13.418;2023-07-24T08:02:45;28.60;25.60
22827;DHT22;11580;52.562;13.418;2023-07-24T08:05:13;28.70;25.40
22827;DHT22;11580;52.562;13.418;2023-07-24T08:07:40;28.80;25.30
22827;DHT22;11580;52.562;13.418;2023-07-24T08:10:08;29.00;25.10
22827;DHT22;11580;52.562;13.418;2023-07-24T08:12:35;29.10;24.80
22827;DHT22;11580;52.562;13.418;2023-07-24T08:15:03;29.30;24.70
22827;DHT22;11580;52.562;13.418;2023-07-24T08:17:31;29.40;24.60
22827;DHT22;11580;52.562;13.418;2023-07-24T08:20:00;29.60;24.60
22827;DHT22;11580;52.562;13.418;2023-07-24T08:22:27;29.80;24.10
22827;DHT22;11580;52.562;13.418;2023-07-24T08:24:54;30.00;24.60
22827;DHT22;11580;52.562;13.418;2023-07-24T08:27:21;30.20;24.10
22827;DHT22;11580;52.562;13.418;2023-07-24T08:29:50;30.40;23.50
22827;DHT22;11580;52.562;13.418;2023-07-24T08:32:18;30.60;23.10
22827;DHT22;11580;52.562;13.418;2023-07-24T08:34:45;30.70;23.00
22827;DHT22;11580;52.562;13.418;2023-07-24T08:37:14;30.90;23.00
22827;DHT22;11580;52.562;13.418;2023-07-24T08:39:41;31.00;22.70
22827;DHT22;11580;52.562;13.418;2023-07-24T08:42:09;31.20;22.50
22827;DHT22;11580;52.562;13.418;2023-07-24T08:44:38;31.40;22.10
22827;DHT22;11580;52.562;13.418;2023-07-24T08:47:09;31.60;21.80
22827;DHT22;11580;52.562;13.418;2023-07-24T08:49:37;31.70;21.80
22827;DHT22;11580;52.562;13.418;2023-07-24T08:52:06;31.90;21.80
22827;DHT22;11580;52.562;13.418;2023-07-24T08:54:37;32.10;21.50
22827;DHT22;11580;52.562;13.418;2023-07-24T08:57:06;32.20;20.80
22827;DHT22;11580;52.562;13.418;2023-07-24T08:59:34;32.30;20.90
22827;DHT22;11580;52.562;13.418;2023-07-24T09:02:01;32.30;20.90
22827;DHT22;11580;52.562;13.418;2023-07-24T09:04:29;32.40;20.80
22827;DHT22;11580;52.562;13.418;2023-07-24T09:06:57;32.40;20.70
22827;DHT22;11580;52.562;13.418;2023-07-24T09:09:29;32.40;20.60
22827;DHT22;11580;52.562;13.418;2023-07-24T09:11:58;32.50;20.20
22827;DHT22;11580;52.562;13.418;2023-07-24T09:14:27;32.50;20.30
22827;DHT22;11580;52.562;13.418;2023-07-24T09:17:04;32.50;20.50
22827;DHT22;11580;52.562;13.418;2023-07-24T09:19:31;32.50;19.90
22827;DHT22;11580;52.562;13.418;2023-07-24T09:22:09;32.50;20.30
22827;DHT22;11580;52.562;13.418;2023-07-24T09:24:38;32.50;20.40
22827;DHT22;11580;52.562;13.418;2023-07-24T09:27:16;32.50;20.20
22827;DHT22;11580;52.562;13.418;2023-07-24T09:29:44;32.50;20.20
22827;DHT22;11580;52.562;13.418;2023-07-24T09:32:19;32.50;20.80
22827;DHT22;11580;52.562;13.418;2023-07-24T09:34:47;32.50;20.10
22827;DHT22;11580;52.562;13.418;2023-07-24T09:37:24;32.50;20.40
22827;DHT22;11580;52.562;13.418;2023-07-24T09:39:52;32.60;19.90
22827;DHT22;11580;52.562;13.418;2023-07-24T09:42:29;32.70;20.20
22827;DHT22;11580;52.562;13.418;2023-07-24T09:44:57;32.90;20.10
22827;DHT22;11580;52.562;13.418;2023-07-24T09:47:24;32.90;19.60
22827;DHT22;11580;52.562;13.418;2023-07-24T09:49:52;33.00;19.50
22827;DHT22;11580;52.562;13.418;2023-07-24T09:52:20;33.10;19.30
22827;DHT22;11580;52.562;13.418;2023-07-24T09:54:54;33.20;19.20
22827;DHT22;11580;52.562;13.418;2023-07-24T09:57:28;33.30;19.00
22827;DHT22;11580;52.562;13.418;2023-07-24T09:59:57;33.30;19.10
22827;DHT22;11580;52.562;13.418;2023-07-24T10:02:24;33.40;19.00
22827;DHT22;11580;52.562;13.418;2023-07-24T10:04:53;33.40;19.00
22827;DHT22;11580;52.562;13.418;2023-07-24T10:07:22;33.50;19.10
22827;DHT22;11580;52.562;13.418;2023-07-24T10:09:50;33.60;18.90
22827;DHT22;11580;52.562;13.418;2023-07-24T10:12:19;33.60;18.70
22827;DHT22;11580;52.562;13.418;2023-07-24T10:14:49;33.60;18.50
22827;DHT22;11580;52.562;13.418;2023-07-24T10:17:33;33.60;18.10
22827;DHT22;11580;52.562;13.418;2023-07-24T10:20:03;33.50;18.40
22827;DHT22;11580;52.562;13.418;2023-07-24T10:22:31;33.40;18.30
22827;DHT22;11580;52.562;13.418;2023-07-24T10:24:59;33.30;18.00
22827;DHT22;11580;52.562;13.418;2023-07-24T10:27:26;33.30;18.00
22827;DHT22;11580;52.562;13.418;2023-07-24T10:30:03;33.20;18.00
22827;DHT22;11580;52.562;13.418;2023-07-24T10:32:32;33.10;17.70
22827;DHT22;11580;52.562;13.418;2023-07-24T10:35:06;33.00;18.00
22827;DHT22;11580;52.562;13.418;2023-07-24T10:37:35;32.90;18.00
22827;DHT22;11580;52.562;13.418;2023-07-24T10:40:04;32.80;18.20
22827;DHT22;11580;52.562;13.418;2023-07-24T10:42:34;32.80;18.40
22827;DHT22;11580;52.562;13.418;2023-07-24T10:45:07;32.80;18.60
22827;DHT22;11580;52.562;13.418;2023-07-24T10:47:36;32.80;18.20
22827;DHT22;11580;52.562;13.418;2023-07-24T10:50:03;32.80;18.30
22827;DHT22;11580;52.562;13.418;2023-07-24T10:52:32;32.90;18.20
22827;DHT22;11580;52.562;13.418;2023-07-24T10:55:00;32.90;18.00
22827;DHT22;11580;52.562;13.418;2023-07-24T10:57:29;33.00;17.90
22827;DHT22;11580;52.562;13.418;2023-07-24T10:59:56;33.10;17.80
22827;DHT22;11580;52.562;13.418;2023-07-24T11:02:25;33.10;17.70
22827;DHT22;11580;52.562;13.418;2023-07-24T11:04:52;33.20;17.40
22827;DHT22;11580;52.562;13.418;2023-07-24T11:07:20;33.30;17.50
22827;DHT22;11580;52.562;13.418;2023-07-24T11:09:47;33.40;17.40
22827;DHT22;11580;52.562;13.418;2023-07-24T11:12:16;33.50;17.50
22827;DHT22;11580;52.562;13.418;2023-07-24T11:14:50;33.60;17.30
22827;DHT22;11580;52.562;13.418;2023-07-24T11:17:20;33.80;16.60
22827;DHT22;11580;52.562;13.418;2023-07-24T11:19:49;33.90;16.60
22827;DHT22;11580;52.562;13.418;2023-07-24T11:22:21;34.00;16.20
22827;DHT22;11580;52.562;13.418;2023-07-24T11:24:49;34.10;15.40
22827;DHT22;11580;52.562;13.418;2023-07-24T11:27:16;34.20;15.70
22827;DHT22;11580;52.562;13.418;2023-07-24T11:29:47;34.20;15.40
22827;DHT22;11580;52.562;13.418;2023-07-24T11:32:18;34.20;15.10
22827;DHT22;11580;52.562;13.418;2023-07-24T11:34:46;34.10;15.30
22827;DHT22;11580;52.562;13.418;2023-07-24T11:37:16;34.00;16.00
22827;DHT22;11580;52.562;13.418;2023-07-24T11:39:55;34.00;15.40
22827;DHT22;11580;52.562;13.418;2023-07-24T11:42:25;33.90;15.30
22827;DHT22;11580;52.562;13.418;2023-07-24T11:44:53;33.90;15.40
22827;DHT22;11580;52.562;13.418;2023-07-24T11:47:21;33.80;15.40
22827;DHT22;11580;52.562;13.418;2023-07-24T11:49:58;33.80;15.40
22827;DHT22;11580;52.562;13.418;2023-07-24T11:52:37;33.80;15.10
22827;DHT22;11580;52.562;13.418;2023-07-24T11:55:07;33.90;15.80
22827;DHT22;11580;52.562;13.418;2023-07-24T11:57:34;33.90;15.40
22827;DHT22;11580;52.562;13.418;2023-07-24T12:00:02;33.90;15.30
22827;DHT22;11580;52.562;13.418;2023-07-24T12:02:33;33.90;15.10
22827;DHT22;11580;52.562;13.418;2023-07-24T12:05:00;33.80;15.70
22827;DHT22;11580;52.562;13.418;2023-07-24T12:07:31;33.80;15.10
22827;DHT22;11580;52.562;13.418;2023-07-24T12:10:00;33.70;14.90
22827;DHT22;11580;52.562;13.418;2023-07-24T12:12:38;33.60;15.80
22827;DHT22;11580;52.562;13.418;2023-07-24T12:15:07;33.50;14.90
22827;DHT22;11580;52.562;13.418;2023-07-24T12:17:35;33.40;15.40
22827;DHT22;11580;52.562;13.418;2023-07-24T12:20:03;33.10;15.60
22827;DHT22;11580;52.562;13.418;2023-07-24T12:22:35;33.00;15.90
22827;DHT22;11580;52.562;13.418;2023-07-24T12:25:03;32.70;17.60
22827;DHT22;11580;52.562;13.418;2023-07-24T12:27:31;32.40;21.20
22827;DHT22;11580;52.562;13.418;2023-07-24T12:29:59;32.00;21.70
22827;DHT22;11580;52.562;13.418;2023-07-24T12:32:27;31.50;21.80
22827;DHT22;11580;52.562;13.418;2023-07-24T12:34:54;30.90;21.70
22827;DHT22;11580;52.562;13.418;2023-07-24T12:37:21;30.30;22.20
22827;DHT22;11580;52.562;13.418;2023-07-24T12:39:50;29.70;23.50
22827;DHT22;11580;52.562;13.418;2023-07-24T12:42:17;29.20;23.50
22827;DHT22;11580;52.562;13.418;2023-07-24T12:44:44;28.80;23.90
22827;DHT22;11580;52.562;13.418;2023-07-24T12:47:11;28.50;24.40
22827;DHT22;11580;52.562;13.418;2023-07-24T12:49:39;28.30;24.90
22827;DHT22;11580;52.562;13.418;2023-07-24T12:52:06;28.10;25.30
22827;DHT22;11580;52.562;13.418;2023-07-24T12:54:34;28.00;25.80
22827;DHT22;11580;52.562;13.418;2023-07-24T12:57:04;28.00;25.90
22827;DHT22;11580;52.562;13.418;2023-07-24T12:59:31;28.00;26.10
22827;DHT22;11580;52.562;13.418;2023-07-24T13:01:58;28.00;25.90
22827;DHT22;11580;52.562;13.418;2023-07-24T13:04:25;28.00;25.90
22827;DHT22;11580;52.562;13.418;2023-07-24T13:06:53;28.10;26.00
22827;DHT22;11580;52.562;13.418;2023-07-24T13:09:20;28.10;26.80
22827;DHT22;11580;52.562;13.418;2023-07-24T13:11:49;28.30;26.30
22827;DHT22;11580;52.562;13.418;2023-07-24T13:14:18;28.40;26.10
22827;DHT22;11580;52.562;13.418;2023-07-24T13:16:45;28.50;25.80
22827;DHT22;11580;52.562;13.418;2023-07-24T13:19:13;28.60;25.70
22827;DHT22;11580;52.562;13.418;2023-07-24T13:21:40;28.70;25.90
22827;DHT22;11580;52.562;13.418;2023-07-24T13:24:08;28.70;26.10
22827;DHT22;11580;52.562;13.418;2023-07-24T13:26:35;28.70;26.20
22827;DHT22;11580;52.562;13.418;2023-07-24T13:29:03;28.70;26.90
22827;DHT22;11580;52.562;13.418;2023-07-24T13:31:32;28.70;26.50
22827;DHT22;11580;52.562;13.418;2023-07-24T13:33:59;28.80;26.90
22827;DHT22;11580;52.562;13.418;2023-07-24T13:36:26;28.90;27.40
22827;DHT22;11580;52.562;13.418;2023-07-24T13:38:53;28.90;26.80
22827;DHT22;11580;52.562;13.418;2023-07-24T13:41:21;29.00;26.80
22827;DHT22;11580;52.562;13.418;2023-07-24T13:43:48;29.10;26.80
22827;DHT22;11580;52.562;13.418;2023-07-24T13:46:15;29.10;26.80
22827;DHT22;11580;52.562;13.418;2023-07-24T13:48:43;29.20;27.20
22827;DHT22;11580;52.562;13.418;2023-07-24T13:51:11;29.30;26.70
22827;DHT22;11580;52.562;13.418;2023-07-24T13:53:38;29.40;26.70
22827;DHT22;11580;52.562;13.418;2023-07-24T13:56:05;29.50;26.50
22827;DHT22;11580;52.562;13.418;2023-07-24T13:58:33;29.70;26.60
22827;DHT22;11580;52.562;13.418;2023-07-24T14:01:00;29.70;26.40
22827;DHT22;11580;52.562;13.418;2023-07-24T14:03:27;29.90;26.20
22827;DHT22;11580;52.562;13.418;2023-07-24T14:05:56;30.00;26.00
22827;DHT22;11580;52.562;13.418;2023-07-24T14:08:24;30.10;25.80
22827;DHT22;11580;52.562;13.418;2023-07-24T14:10:51;30.20;25.60
22827;DHT22;11580;52.562;13.418;2023-07-24T14:13:18;30.30;25.50
22827;DHT22;11580;52.562;13.418;2023-07-24T14:15:46;30.40;25.10
22827;DHT22;11580;52.562;13.418;2023-07-24T14:18:13;30.50;25.00
22827;DHT22;11580;52.562;13.418;2023-07-24T14:20:40;30.50;24.80
22827;DHT22;11580;52.562;13.418;2023-07-24T14:23:08;30.50;24.60
22827;DHT22;11580;52.562;13.418;2023-07-24T14:25:35;30.50;24.50
22827;DHT22;11580;52.562;13.418;2023-07-24T14:28:03;30.50;24.40
22827;DHT22;11580;52.562;13.418;2023-07-24T14:30:30;30.50;24.60
22827;DHT22;11580;52.562;13.418;2023-07-24T14:32:57;30.50;24.50
22827;DHT22;11580;52.562;13.418;2023-07-24T14:35:25;30.50;24.90
22827;DHT22;11580;52.562;13.418;2023-07-24T14:37:52;30.50;24.50
22827;DHT22;11580;52.562;13.418;2023-07-24T14:40:20;30.50;24.40
22827;DHT22;11580;52.562;13.418;2023-07-24T14:42:47;30.60;24.30
22827;DHT22;11580;52.562;13.418;2023-07-24T14:45:15;30.60;24.30
22827;DHT22;11580;52.562;13.418;2023-07-24T14:47:42;30.70;24.40
22827;DHT22;11580;52.562;13.418;2023-07-24T14:50:10;30.70;24.40
22827;DHT22;11580;52.562;13.418;2023-07-24T14:52:37;30.80;24.80
22827;DHT22;11580;52.562;13.418;2023-07-24T14:55:04;30.80;24.90
22827;DHT22;11580;52.562;13.418;2023-07-24T14:57:35;30.90;24.70
22827;DHT22;11580;52.562;13.418;2023-07-24T15:00:03;30.90;24.90
22827;DHT22;11580;52.562;13.418;2023-07-24T15:02:31;30.90;24.40
22827;DHT22;11580;52.562;13.418;2023-07-24T15:04:58;30.90;24.20
22827;DHT22;11580;52.562;13.418;2023-07-24T15:07:26;30.90;24.00
22827;DHT22;11580;52.562;13.418;2023-07-24T15:09:53;30.80;23.10
22827;DHT22;11580;52.562;13.418;2023-07-24T15:12:20;30.80;23.00
22827;DHT22;11580;52.562;13.418;2023-07-24T15:14:49;30.70;23.00
22827;DHT22;11580;52.562;13.418;2023-07-24T15:17:16;30.60;22.90
22827;DHT22;11580;52.562;13.418;2023-07-24T15:19:43;30.60;22.80
22827;DHT22;11580;52.562;13.418;2023-07-24T15:22:11;30.50;22.70